Aérodrome :
LOGIN :

S'inscrire | Disclaimer

   EN    FR    IT 

 










Légende :    VFR   VFR Marginal   IFR   IFR Intensif   IFR Très Intensif
Visi : 
Plafond : 
>= 8 km
>= 3000ft
5 à 8 km
1000 à 3000 ft
1500m à 5 km
500 à 1000 ft
800 à 1500m
200 à 500 ft
< 800m
< 200 ft
Symboles :   Orages  Brouillard  Fortes neiges  Fortes précipitations  Vent > 20 kt
SIGMETs :   Divers  Orages  Givrage  Turbulence  Onde Orograph.  Cendres Volcan.






- Altitude de l'aérodrome : 297 ft
- Code IATA : UIP


LFRQ - Quimper Pluguffan

DERNIER METAR :
  • 270530Z AUTO 22007KT 9999 BKN017 BKN038 BKN110 09/08 Q1008

METARs EXPIRÉS :
  • 270500Z AUTO 22007KT 9999 SCT018 SCT023 BKN043 09/08 Q1008
  • 270430Z AUTO 23007KT 9999 FEW044 BKN140 09/08 Q1008
  • 270400Z AUTO 23007KT 9999 FEW015 BKN150 09/08 Q1009
  • 270330Z AUTO 24009KT 9999 OVC015 10/08 Q1009
  • 270300Z AUTO 21003KT 9999 SCT010 BKN016 BKN030 09/08 Q1009

TAF TAF LFRQ
Valide du 26 à 18h jusqu'au 27 à 18h UTC


261700Z 2618/2718 22014KT 9999 BKN010
TEMPO 2618/2620 22018G28KT 2000 RA OVC003 SCT010CB
BECMG 2620/2622 BKN020
TEMPO 2622/2718 SHRA SCT010TCU BKN015
PROB30
TEMPO 2715/2718 25020G35KT 3000 TSRA BKN012CB



MET'MAP, la Météo Aéronautique d'un coup d'oeil ! - Copyright ORBIFLY Décembre 2007 - Disclaimer

ORBIFLY MET'MAP TEAM :

Programmation & Développement : Alexandra Zaïnal
Sur une idée originale de : Baudouin d'Aumeries
Assistance à la programmation : Marc-Olivier Méhu
Soutien technique & logistique : Manuel Goepfert

Contact : metmap@orbifly.com




SOURCES & CREDITS :

   NOAA